Time;durP1;ratioP1;P1;durP2;ratioP2;P2;SDS_P1;SDS_P2;PMS_P1;PMS_P2;Temp;Humidity;BMP_temperature;BMP_pressure;BME280_temperature;BME280_humidity;BME280_pressure;Samples;Min_cycle;Max_cycle;Signal;HPM_P1;HPM_P2
2023/03/11 00:00:44;;;;;;;4.27;3.70;;;;;20.40;99386.00;;;;2071925;28;20273;-66
2023/03/11 00:01:44;;;;;;;4.07;3.25;;;;;20.40;99389.00;;;;2071754;28;20210;-66
2023/03/11 00:02:45;;;;;;;4.43;3.50;;;;;20.40;99384.00;;;;2071807;28;20214;-66
2023/03/11 00:03:45;;;;;;;5.33;3.57;;;;;20.30;99393.00;;;;2071871;28;20253;-66
2023/03/11 00:04:45;;;;;;;5.17;3.50;;;;;20.30;99393.00;;;;2069027;28;20222;-66
2023/03/11 00:05:46;;;;;;;4.83;3.50;;;;;20.40;99402.00;;;;2054903;28;20262;-66
2023/03/11 00:06:46;;;;;;;5.17;3.67;;;;;20.30;99398.00;;;;2055117;28;20220;-66
2023/03/11 00:07:46;;;;;;;4.93;3.30;;;;;20.30;99395.00;;;;2063349;28;20215;-65
2023/03/11 00:08:47;;;;;;;4.50;3.30;;;;;20.30;99406.00;;;;2063414;28;21102;-66
2023/03/11 00:09:47;;;;;;;4.37;3.60;;;;;20.30;99409.00;;;;2063775;28;20748;-66
2023/03/11 00:10:51;;;;;;;3.73;2.90;;;;;20.30;99400.00;;;;2063779;28;20215;-65
2023/03/11 00:11:51;;;;;;;4.70;3.80;;;;;20.30;99418.00;;;;2063712;28;20214;-66
2023/03/11 00:12:52;;;;;;;3.40;3.03;;;;;20.30;99423.00;;;;2063500;28;20239;-65
2023/03/11 00:13:52;;;;;;;4.73;3.30;;;;;20.30;99422.00;;;;2063332;28;20277;-65
2023/03/11 00:14:52;;;;;;;4.77;3.47;;;;;20.30;99415.00;;;;2063609;28;20222;-66
2023/03/11 00:15:56;;;;;;;3.37;2.90;;;;;20.30;99423.00;;;;2063554;28;20214;-66
2023/03/11 00:16:57;;;;;;;2.65;2.45;;;;;20.30;99423.00;;;;2063182;28;20211;-66
2023/03/11 00:17:57;;;;;;;3.47;2.57;;;;;20.30;99424.00;;;;2063119;28;20226;-65
2023/03/11 00:18:57;;;;;;;3.60;2.90;;;;;20.30;99425.00;;;;2063336;28;20222;-66
2023/03/11 00:19:58;;;;;;;3.50;2.60;;;;;20.30;99433.00;;;;2063541;28;20218;-64
2023/03/11 00:20:58;;;;;;;3.67;3.03;;;;;20.30;99425.00;;;;2063626;28;20576;-66
2023/03/11 00:21:58;;;;;;;4.00;3.10;;;;;20.30;99425.00;;;;2063463;28;20234;-66
2023/03/11 00:22:59;;;;;;;3.53;2.53;;;;;20.30;99427.00;;;;2046646;28;20268;-66
2023/03/11 00:24:01;;;;;;;3.13;2.40;;;;;20.30;99437.00;;;;2046790;28;20224;-66
2023/03/11 00:25:01;;;;;;;4.22;2.70;;;;;20.20;99405.00;;;;2063502;28;20230;-66
2023/03/11 00:26:02;;;;;;;3.73;2.97;;;;;20.20;99430.00;;;;2063607;28;20226;-65
2023/03/11 00:27:02;;;;;;;3.37;2.43;;;;;20.20;99435.00;;;;2063460;28;20214;-66
2023/03/11 00:28:04;;;;;;;3.27;2.20;;;;;20.20;99436.00;;;;2062841;28;20249;-66
2023/03/11 00:29:04;;;;;;;2.45;2.00;;;;;20.20;99436.00;;;;2063474;28;20682;-66
2023/03/11 00:30:05;;;;;;;3.20;2.20;;;;;20.20;99438.00;;;;2062959;28;20207;-66
2023/03/11 00:31:05;;;;;;;2.37;2.10;;;;;20.20;99439.00;;;;2063302;28;20278;-65
2023/03/11 00:32:06;;;;;;;3.27;2.33;;;;;20.20;99452.00;;;;2063385;28;20524;-65
2023/03/11 00:33:06;;;;;;;2.33;2.03;;;;;20.20;99451.00;;;;2063429;28;20215;-66
2023/03/11 00:34:07;;;;;;;2.30;2.10;;;;;20.20;99447.00;;;;2063319;28;20219;-66
2023/03/11 00:35:09;;;;;;;3.67;2.10;;;;;20.20;99443.00;;;;2063347;28;20390;-65
2023/03/11 00:36:23;;;;;;;2.75;1.88;;;;;20.20;99455.00;;;;2054669;28;20253;-65
2023/03/11 00:37:23;;;;;;;1.85;1.60;;;;;20.20;99448.00;;;;2048233;28;20666;-66
2023/03/11 00:38:23;;;;;;;3.20;1.90;;;;;20.20;99457.00;;;;2055719;28;20249;-66
2023/03/11 00:39:24;;;;;;;2.90;2.10;;;;;20.20;99453.00;;;;2063161;28;20699;-66
2023/03/11 00:40:25;;;;;;;3.37;1.80;;;;;20.20;99464.00;;;;2063242;28;20219;-65
2023/03/11 00:41:25;;;;;;;2.78;1.90;;;;;20.20;99446.00;;;;2063200;28;20249;-66
2023/03/11 00:42:26;;;;;;;1.93;1.70;;;;;20.10;99452.00;;;;2063435;28;20215;-66
2023/03/11 00:43:26;;;;;;;2.63;2.00;;;;;20.10;99468.00;;;;2063310;28;20729;-66
2023/03/11 00:44:26;;;;;;;4.43;1.70;;;;;20.10;99468.00;;;;2062702;28;20579;-65
2023/03/11 00:45:27;;;;;;;2.27;1.63;;;;;20.10;99464.00;;;;2054616;28;20624;-66
2023/03/11 00:46:28;;;;;;;2.37;1.57;;;;;20.10;99468.00;;;;2054678;28;20229;-66
2023/03/11 00:47:29;;;;;;;2.50;1.98;;;;;20.10;99466.00;;;;2063034;28;20211;-65
2023/03/11 00:48:29;;;;;;;1.70;1.60;;;;;20.10;99438.00;;;;2062941;28;20772;-66
2023/03/11 00:49:29;;;;;;;2.80;1.90;;;;;20.10;99462.00;;;;2063349;28;20215;-65
2023/03/11 00:50:31;;;;;;;1.70;1.20;;;;;20.10;99467.00;;;;2063299;28;20214;-66
2023/03/11 00:51:31;;;;;;;1.88;1.60;;;;;20.10;99465.00;;;;2054502;28;20207;-66
2023/03/11 00:52:32;;;;;;;2.27;1.90;;;;;20.10;99463.00;;;;2054391;28;20207;-66
2023/03/11 00:53:32;;;;;;;1.60;1.37;;;;;20.10;99469.00;;;;2063304;28;20697;-66
2023/03/11 00:54:32;;;;;;;2.33;1.77;;;;;20.10;99467.00;;;;2063254;28;20265;-66
2023/03/11 00:55:33;;;;;;;1.60;1.30;;;;;20.10;99464.00;;;;2063337;28;20710;-66
2023/03/11 00:56:33;;;;;;;2.43;1.50;;;;;20.10;99468.00;;;;2063374;28;20266;-66
2023/03/11 00:57:34;;;;;;;2.23;1.43;;;;;20.10;99467.00;;;;2063049;28;20207;-65
2023/03/11 00:58:34;;;;;;;1.40;1.10;;;;;20.10;99468.00;;;;2063009;28;20218;-65
2023/03/11 00:59:35;;;;;;;1.53;1.40;;;;;20.10;99477.00;;;;2063169;28;20219;-66
2023/03/11 01:00:35;;;;;;;1.40;1.10;;;;;20.10;99477.00;;;;2063220;28;20217;-66
2023/03/11 01:01:35;;;;;;;2.40;1.47;;;;;20.10;99482.00;;;;2063429;28;20211;-66
2023/03/11 01:02:36;;;;;;;2.00;1.20;;;;;20.00;99477.00;;;;2063417;28;20207;-65
2023/03/11 01:03:37;;;;;;;2.28;1.33;;;;;20.00;99480.00;;;;2063064;28;20294;-65
2023/03/11 01:04:37;;;;;;;2.10;1.50;;;;;20.00;99484.00;;;;2064469;28;20226;-66
2023/03/11 01:05:38;;;;;;;2.07;1.10;;;;;20.00;99484.00;;;;2071367;28;20214;-66
2023/03/11 01:06:38;;;;;;;1.80;1.40;;;;;20.00;99490.00;;;;2071412;28;20268;-66
2023/03/11 01:07:38;;;;;;;1.90;1.37;;;;;20.00;99501.00;;;;2071354;28;20214;-66
2023/03/11 01:08:39;;;;;;;4.10;1.27;;;;;20.00;99501.00;;;;2070979;28;20206;-66
2023/03/11 01:09:39;;;;;;;3.00;1.40;;;;;20.00;99510.00;;;;2071179;28;20210;-65
2023/03/11 01:10:39;;;;;;;2.90;1.30;;;;;20.00;99498.00;;;;2071420;28;20217;-66
2023/03/11 01:11:39;;;;;;;2.77;1.60;;;;;20.00;99505.00;;;;2071351;28;20225;-66
2023/03/11 01:12:40;;;;;;;3.40;1.20;;;;;20.00;99492.00;;;;2062405;28;20251;-66
2023/03/11 01:13:41;;;;;;;1.73;1.17;;;;;20.00;99501.00;;;;2062621;28;20254;-66
2023/03/11 01:14:41;;;;;;;1.80;1.50;;;;;20.00;99500.00;;;;2071098;28;20476;-66
2023/03/11 01:15:41;;;;;;;1.63;1.10;;;;;20.00;99506.00;;;;2071210;28;20206;-66
2023/03/11 01:16:42;;;;;;;2.73;1.30;;;;;20.00;99505.00;;;;2062673;28;20230;-66
2023/03/11 01:17:42;;;;;;;1.77;1.20;;;;;20.00;99501.00;;;;2062575;28;20690;-66
2023/03/11 01:18:42;;;;;;;1.70;1.20;;;;;20.00;99509.00;;;;2070986;28;20206;-66
2023/03/11 01:19:43;;;;;;;1.83;1.13;;;;;20.00;99502.00;;;;2071089;28;20284;-66
2023/03/11 01:20:44;;;;;;;3.33;1.50;;;;;20.00;99501.00;;;;2071119;28;20210;-66
2023/03/11 01:21:44;;;;;;;2.00;1.33;;;;;20.00;99508.00;;;;2071395;28;20256;-66
2023/03/11 01:22:45;;;;;;;1.77;1.50;;;;;20.00;99498.00;;;;2062679;28;20214;-66
2023/03/11 01:23:45;;;;;;;2.27;1.23;;;;;20.00;99504.00;;;;2062676;28;20249;-66
2023/03/11 01:24:45;;;;;;;2.67;1.17;;;;;20.00;99500.00;;;;2071267;28;20635;-66
2023/03/11 01:25:45;;;;;;;1.83;1.00;;;;;20.00;99498.00;;;;2071061;28;20580;-66
2023/03/11 01:26:46;;;;;;;1.37;1.03;;;;;20.00;99496.00;;;;2071349;28;20221;-66
2023/03/11 01:27:46;;;;;;;1.70;1.07;;;;;20.00;99505.00;;;;2071171;28;20272;-66
2023/03/11 01:28:46;;;;;;;3.33;1.43;;;;;19.90;99504.00;;;;2071114;28;20221;-66
2023/03/11 01:29:47;;;;;;;1.40;1.00;;;;;19.90;99496.00;;;;2071320;28;20309;-66
2023/03/11 01:30:47;;;;;;;1.73;1.00;;;;;19.90;99497.00;;;;2071360;28;20214;-66
2023/03/11 01:31:47;;;;;;;2.20;1.13;;;;;19.90;99502.00;;;;2071060;28;20225;-66
2023/03/11 01:32:48;;;;;;;2.07;1.03;;;;;19.90;99506.00;;;;2071368;28;20230;-66
2023/03/11 01:33:48;;;;;;;2.10;1.20;;;;;19.90;99506.00;;;;2071260;28;20268;-66
2023/03/11 01:34:48;;;;;;;2.37;1.10;;;;;19.90;99506.00;;;;2071158;28;20218;-66
2023/03/11 01:35:49;;;;;;;1.57;1.00;;;;;19.90;99502.00;;;;2071109;28;20217;-66
2023/03/11 01:36:49;;;;;;;1.20;0.80;;;;;19.90;99512.00;;;;2071190;28;20596;-66
2023/03/11 01:37:52;;;;;;;1.30;1.00;;;;;19.90;99511.00;;;;2071236;28;20580;-65
2023/03/11 01:38:53;;;;;;;1.73;1.10;;;;;19.90;99514.00;;;;2071051;28;20582;-66
2023/03/11 01:39:53;;;;;;;1.40;0.97;;;;;19.90;99508.00;;;;2071284;28;20214;-66
2023/03/11 01:40:53;;;;;;;1.37;0.80;;;;;19.90;99518.00;;;;2061381;28;20225;-66
2023/03/11 01:41:55;;;;;;;1.83;1.00;;;;;19.90;99534.00;;;;2062340;28;20222;-65
2023/03/11 01:42:55;;;;;;;2.35;1.10;;;;;19.90;99517.00;;;;2070944;28;20562;-66
2023/03/11 01:43:55;;;;;;;2.10;0.90;;;;;19.90;99515.00;;;;2062569;28;20225;-65
2023/03/11 01:44:56;;;;;;;1.40;0.90;;;;;19.90;99525.00;;;;2062697;28;20258;-66
2023/03/11 01:45:56;;;;;;;1.20;0.80;;;;;19.90;99520.00;;;;2071131;28;20682;-65
2023/03/11 01:46:58;;;;;;;1.60;0.80;;;;;19.90;99527.00;;;;2071154;28;20588;-65
2023/03/11 01:47:59;;;;;;;1.65;0.82;;;;;19.80;99519.00;;;;2070489;28;20222;-66
2023/03/11 01:49:00;;;;;;;1.43;1.00;;;;;19.80;99526.00;;;;2071262;28;20564;-66
2023/03/11 01:50:01;;;;;;;1.70;1.10;;;;;19.80;99527.00;;;;2071090;28;20228;-66
2023/03/11 01:51:01;;;;;;;1.30;1.00;;;;;19.80;99521.00;;;;2054216;28;20231;-66
2023/03/11 01:52:06;;;;;;;1.47;0.73;;;;;19.80;99465.00;;;;2054641;28;20943;-66
2023/03/11 01:53:06;;;;;;;2.08;1.20;;;;;19.80;99524.00;;;;2062616;28;20709;-66
2023/03/11 01:54:10;;;;;;;1.43;0.77;;;;;19.80;99487.00;;;;2046565;28;20240;-65
2023/03/11 01:55:11;;;;;;;1.45;0.80;;;;;19.80;99475.00;;;;2055005;28;20284;-66
2023/03/11 01:56:11;;;;;;;1.00;0.70;;;;;19.80;99480.00;;;;2054413;28;20614;-66
2023/03/11 01:57:12;;;;;;;1.50;0.80;;;;;19.80;99534.00;;;;2054019;28;20216;-65
2023/03/11 01:58:17;;;;;;;1.60;1.00;;;;;19.80;99532.00;;;;2053683;28;20275;-66
2023/03/11 01:59:23;;;;;;;1.45;0.90;;;;;19.80;99532.00;;;;2062354;28;20230;-66
2023/03/11 02:00:23;;;;;;;2.10;1.40;;;;;19.80;99526.00;;;;2062949;28;20302;-66
2023/03/11 02:01:23;;;;;;;2.30;0.90;;;;;19.80;99520.00;;;;2071135;28;20237;-66
2023/03/11 02:02:33;;;;;;;1.23;0.70;;;;;19.80;99524.00;;;;2062489;28;20218;-65
2023/03/11 02:03:36;;;;;;;1.85;0.73;;;;;19.80;99552.00;;;;2055420;28;20287;-66
2023/03/11 02:04:36;;;;;;;1.70;0.90;;;;;19.80;99480.00;;;;2061382;28;20246;-66
2023/03/11 02:05:36;;;;;;;1.93;0.90;;;;;19.80;99529.00;;;;2054501;28;20262;-65
2023/03/11 02:06:37;;;;;;;1.87;0.83;;;;;19.80;99531.00;;;;2047878;28;20210;-66
2023/03/11 02:07:39;;;;;;;1.20;0.77;;;;;19.80;99530.00;;;;2056023;28;20307;-65
2023/03/11 02:08:40;;;;;;;2.42;1.10;;;;;19.80;99540.00;;;;2055899;28;20218;-66
2023/03/11 02:09:40;;;;;;;1.10;0.70;;;;;19.80;99537.00;;;;2056046;28;20211;-66
2023/03/11 02:10:41;;;;;;;2.27;0.93;;;;;19.80;99529.00;;;;2047762;28;20506;-66
2023/03/11 02:11:41;;;;;;;2.10;1.07;;;;;19.80;99539.00;;;;2055858;28;20222;-66
2023/03/11 02:12:41;;;;;;;2.07;0.90;;;;;19.80;99539.00;;;;2055891;28;20211;-66
2023/03/11 02:13:42;;;;;;;1.83;0.90;;;;;19.80;99539.00;;;;2047948;28;20208;-66
2023/03/11 02:14:44;;;;;;;1.77;0.90;;;;;19.80;99530.00;;;;2055817;28;20336;-66
2023/03/11 02:15:44;;;;;;;2.00;1.10;;;;;19.80;99537.00;;;;2048053;28;20778;-66
2023/03/11 02:16:45;;;;;;;2.50;0.90;;;;;19.70;99542.00;;;;2047794;28;20224;-66
2023/03/11 02:17:45;;;;;;;2.10;0.80;;;;;19.80;99566.00;;;;2055969;28;20653;-66
2023/03/11 02:18:45;;;;;;;2.20;1.10;;;;;19.70;99542.00;;;;2055309;28;20643;-66
2023/03/11 02:20:11;;;;;;;1.77;1.00;;;;;19.70;99487.00;;;;2064400;28;20723;-66
2023/03/11 02:21:30;;;;;;;4.00;1.00;;;;;19.70;99490.00;;;;2055701;28;20218;-66
2023/03/11 02:22:32;;;;;;;1.23;0.70;;;;;19.70;99546.00;;;;2047622;28;20224;-66
2023/03/11 02:23:42;;;;;;;1.83;0.90;;;;;19.70;99545.00;;;;2048214;28;20375;-65
2023/03/11 02:25:00;;;;;;;1.77;0.88;;;;;19.70;99531.00;;;;2055741;28;20243;-66
2023/03/11 02:26:08;;;;;;;1.52;0.80;;;;;19.70;99542.00;;;;2049816;28;20663;-66
2023/03/11 02:27:10;;;;;;;1.50;0.85;;;;;19.70;99534.00;;;;2049510;28;20307;-66
2023/03/11 02:28:11;;;;;;;2.17;0.85;;;;;19.70;99540.00;;;;2047457;29;20303;-66
2023/03/11 02:29:12;;;;;;;2.92;0.63;;;;;19.70;99506.00;;;;2047869;28;20287;-66
2023/03/11 02:30:13;;;;;;;1.70;0.80;;;;;19.70;99533.00;;;;2040035;29;20713;-66
2023/03/11 02:31:14;;;;;;;1.17;0.60;;;;;19.70;99528.00;;;;2047772;28;20231;-66
2023/03/11 02:32:14;;;;;;;1.20;0.70;;;;;19.70;99538.00;;;;2055559;28;20262;-66
2023/03/11 02:33:15;;;;;;;2.60;0.90;;;;;19.70;99535.00;;;;2055295;28;20310;-66
2023/03/11 02:34:27;;;;;;;2.40;1.17;;;;;19.70;99545.00;;;;2064451;28;20222;-65
2023/03/11 02:35:27;;;;;;;1.73;1.08;;;;;19.70;99538.00;;;;2064484;28;20458;-66
2023/03/11 02:36:37;;;;;;;2.97;1.07;;;;;19.70;99529.00;;;;2055509;28;20219;-66
2023/03/11 02:37:45;;;;;;;2.25;0.90;;;;;19.70;99524.00;;;;2056866;28;20912;-66
2023/03/11 02:38:46;;;;;;;2.95;1.02;;;;;19.60;99527.00;;;;2063846;28;20710;-66
2023/03/11 02:39:50;;;;;;;0.90;0.50;;;;;19.60;99531.00;;;;2064255;28;20231;-66
2023/03/11 02:40:55;;;;;;;2.55;0.82;;;;;19.60;99534.00;;;;2055652;28;20294;-66
2023/03/11 02:41:55;;;;;;;1.45;0.70;;;;;19.60;99536.00;;;;2048011;28;20444;-66
2023/03/11 02:42:57;;;;;;;1.57;0.83;;;;;19.60;99490.00;;;;2047634;28;20642;-66
2023/03/11 02:43:58;;;;;;;1.92;0.93;;;;;19.60;99498.00;;;;2039114;29;20692;-66
2023/03/11 02:45:05;;;;;;;1.73;0.97;;;;;19.60;99535.00;;;;2031948;29;20221;-65
2023/03/11 02:46:05;;;;;;;1.85;0.85;;;;;19.60;99533.00;;;;2041485;28;20760;-66
2023/03/11 02:47:06;;;;;;;1.10;0.73;;;;;19.60;99501.00;;;;2047368;28;20276;-66
2023/03/11 02:48:07;;;;;;;2.90;1.00;;;;;19.60;99537.00;;;;2047282;29;20224;-66
2023/03/11 02:49:07;;;;;;;1.93;0.87;;;;;19.60;99544.00;;;;2047460;28;20264;-66
2023/03/11 02:50:09;;;;;;;2.10;1.37;;;;;19.60;99541.00;;;;2047655;29;20455;-66
2023/03/11 02:51:10;;;;;;;1.63;0.90;;;;;19.60;99544.00;;;;2047559;28;20799;-66
2023/03/11 02:52:11;;;;;;;3.77;1.27;;;;;19.60;99547.00;;;;2055650;28;20212;-66
2023/03/11 02:53:12;;;;;;;2.95;1.13;;;;;19.60;99555.00;;;;2064170;28;20734;-66
2023/03/11 02:54:12;;;;;;;1.20;0.70;;;;;19.60;99554.00;;;;2064199;28;20219;-66
2023/03/11 02:55:14;;;;;;;1.83;0.80;;;;;19.60;99545.00;;;;2063924;28;20218;-66
2023/03/11 02:56:15;;;;;;;2.28;1.00;;;;;19.60;99553.00;;;;2064195;28;20333;-66
2023/03/11 02:57:15;;;;;;;2.53;1.30;;;;;19.60;99549.00;;;;2063931;28;20246;-66
2023/03/11 02:58:15;;;;;;;2.13;1.10;;;;;19.60;99554.00;;;;2063675;28;20300;-66
2023/03/11 02:59:16;;;;;;;2.37;0.90;;;;;19.60;99545.00;;;;2063960;28;20226;-66
2023/03/11 03:00:16;;;;;;;2.70;1.37;;;;;19.60;99550.00;;;;2063985;28;20215;-66
2023/03/11 03:01:17;;;;;;;2.47;1.20;;;;;19.60;99553.00;;;;2063958;28;20215;-65
2023/03/11 03:02:17;;;;;;;3.33;1.20;;;;;19.50;99546.00;;;;2063920;28;20232;-66
2023/03/11 03:03:17;;;;;;;2.67;1.17;;;;;19.50;99551.00;;;;2064003;28;20277;-66
2023/03/11 03:04:18;;;;;;;1.60;1.33;;;;;19.50;99552.00;;;;2063909;28;20226;-66
2023/03/11 03:05:19;;;;;;;5.60;1.60;;;;;19.50;99509.00;;;;2070740;28;20697;-66
2023/03/11 03:06:19;;;;;;;2.40;1.33;;;;;19.50;99554.00;;;;2063301;28;20223;-66
2023/03/11 03:07:20;;;;;;;2.13;1.20;;;;;19.50;99546.00;;;;2055511;28;20215;-66
2023/03/11 03:08:20;;;;;;;1.77;1.43;;;;;19.50;99552.00;;;;2063058;28;20214;-66
2023/03/11 03:09:20;;;;;;;2.20;1.30;;;;;19.50;99550.00;;;;2063525;28;20214;-66
2023/03/11 03:10:21;;;;;;;3.30;1.20;;;;;19.50;99561.00;;;;2063432;28;20210;-66
2023/03/11 03:11:21;;;;;;;2.60;1.17;;;;;19.50;99557.00;;;;2063101;28;20211;-66
2023/03/11 03:12:21;;;;;;;2.40;0.97;;;;;19.50;99551.00;;;;2063221;28;20219;-66
2023/03/11 03:13:22;;;;;;;2.77;1.57;;;;;19.50;99552.00;;;;2072041;28;20211;-66
2023/03/11 03:14:22;;;;;;;2.17;1.10;;;;;19.50;99547.00;;;;2071887;28;20244;-66
2023/03/11 03:15:22;;;;;;;2.87;1.50;;;;;19.50;99545.00;;;;2071736;28;20217;-66
2023/03/11 03:16:23;;;;;;;2.90;1.27;;;;;19.50;99560.00;;;;2072104;28;20221;-66
2023/03/11 03:17:23;;;;;;;2.27;1.03;;;;;19.50;99545.00;;;;2071633;28;20268;-66
2023/03/11 03:18:24;;;;;;;2.93;1.27;;;;;19.50;99552.00;;;;2071517;28;20213;-66
2023/03/11 03:19:24;;;;;;;3.10;1.27;;;;;19.50;99557.00;;;;2063117;28;20232;-66
2023/03/11 03:20:25;;;;;;;1.97;1.33;;;;;19.50;99567.00;;;;2063350;28;20218;-66
2023/03/11 03:21:25;;;;;;;2.50;1.30;;;;;19.50;99560.00;;;;2071962;28;20305;-66
2023/03/11 03:22:28;;;;;;;2.57;1.50;;;;;19.50;99573.00;;;;2071934;28;20810;-66
2023/03/11 03:23:28;;;;;;;4.93;1.52;;;;;19.50;99561.00;;;;2071553;28;20276;-66
2023/03/11 03:24:28;;;;;;;3.30;1.57;;;;;19.50;99566.00;;;;2071940;28;20218;-66
2023/03/11 03:25:29;;;;;;;3.23;1.40;;;;;19.50;99572.00;;;;2072016;28;20221;-66
2023/03/11 03:26:29;;;;;;;1.87;1.17;;;;;19.50;99570.00;;;;2071807;28;20211;-66
2023/03/11 03:27:29;;;;;;;2.47;1.20;;;;;19.50;99566.00;;;;2071870;28;20220;-66
2023/03/11 03:28:30;;;;;;;3.10;1.60;;;;;19.50;99560.00;;;;2071391;28;20214;-66
2023/03/11 03:29:30;;;;;;;3.00;1.63;;;;;19.50;99577.00;;;;2071825;28;20217;-65
2023/03/11 03:30:30;;;;;;;2.47;1.20;;;;;19.50;99580.00;;;;2071895;28;20214;-63
2023/03/11 03:31:31;;;;;;;2.87;1.50;;;;;19.50;99570.00;;;;2055062;28;20218;-66
2023/03/11 03:32:31;;;;;;;2.40;1.50;;;;;19.50;99570.00;;;;2055226;28;20227;-66
2023/03/11 03:33:31;;;;;;;4.83;1.50;;;;;19.40;99557.00;;;;2071919;28;20268;-66
2023/03/11 03:34:32;;;;;;;2.87;1.30;;;;;19.40;99590.00;;;;2071639;28;20244;-66
2023/03/11 03:35:33;;;;;;;4.07;1.50;;;;;19.50;99576.00;;;;2071876;28;20617;-66
2023/03/11 03:36:34;;;;;;;2.17;1.30;;;;;19.40;99573.00;;;;2063155;28;20699;-66
2023/03/11 03:37:34;;;;;;;2.13;1.10;;;;;19.50;99578.00;;;;2063319;28;20203;-66
2023/03/11 03:38:35;;;;;;;1.97;1.03;;;;;19.50;99577.00;;;;2071611;28;20388;-66
2023/03/11 03:39:35;;;;;;;2.53;1.20;;;;;19.40;99581.00;;;;2071576;28;20457;-66
2023/03/11 03:40:36;;;;;;;3.50;1.73;;;;;19.40;99589.00;;;;2062750;28;20215;-66
2023/03/11 03:41:36;;;;;;;3.13;1.57;;;;;19.40;99578.00;;;;2063045;28;20737;-66
2023/03/11 03:42:36;;;;;;;4.27;1.70;;;;;19.40;99580.00;;;;2071965;28;20214;-66
2023/03/11 03:43:37;;;;;;;2.40;1.00;;;;;19.40;99595.00;;;;2063277;28;20215;-66
2023/03/11 03:44:37;;;;;;;2.60;1.33;;;;;19.40;99591.00;;;;2063085;28;20234;-66
2023/03/11 03:45:37;;;;;;;3.00;1.40;;;;;19.40;99590.00;;;;2071359;28;20206;-66
2023/03/11 03:46:38;;;;;;;5.73;1.30;;;;;19.40;99593.00;;;;2071693;28;20220;-66
2023/03/11 03:47:38;;;;;;;2.47;1.47;;;;;19.40;99594.00;;;;2071916;28;20214;-66
2023/03/11 03:48:39;;;;;;;4.20;1.23;;;;;19.40;99585.00;;;;2071622;28;20563;-66
2023/03/11 03:49:39;;;;;;;3.43;1.40;;;;;19.40;99586.00;;;;2071642;28;20205;-66
2023/03/11 03:50:39;;;;;;;2.10;1.20;;;;;19.40;99588.00;;;;2071621;28;20214;-66
2023/03/11 03:51:40;;;;;;;4.17;1.40;;;;;19.40;99588.00;;;;2071713;28;20205;-66
2023/03/11 03:52:40;;;;;;;3.43;1.43;;;;;19.40;99590.00;;;;2071858;28;20206;-66
2023/03/11 03:53:40;;;;;;;4.40;1.30;;;;;19.40;99597.00;;;;2071862;28;20264;-66
2023/03/11 03:54:41;;;;;;;3.33;1.60;;;;;19.40;99602.00;;;;2071515;28;20213;-66
2023/03/11 03:55:41;;;;;;;3.67;1.70;;;;;19.40;99598.00;;;;2071911;28;20673;-66
2023/03/11 03:56:41;;;;;;;2.80;1.30;;;;;19.40;99600.00;;;;2071586;28;20202;-66
2023/03/11 03:57:41;;;;;;;3.93;1.37;;;;;19.40;99614.00;;;;2071793;28;20256;-66
2023/03/11 03:58:42;;;;;;;2.97;1.40;;;;;19.30;99609.00;;;;2071435;28;20237;-66
2023/03/11 03:59:42;;;;;;;3.37;1.10;;;;;19.40;99612.00;;;;2071734;28;20219;-66
2023/03/11 04:00:42;;;;;;;1.90;1.10;;;;;19.40;99615.00;;;;2071692;28;20206;-66
2023/03/11 04:01:43;;;;;;;4.33;1.47;;;;;19.30;99617.00;;;;2071835;28;20206;-66
2023/03/11 04:02:43;;;;;;;2.53;1.47;;;;;19.40;99616.00;;;;2071637;28;20212;-66
2023/03/11 04:03:43;;;;;;;3.03;1.07;;;;;19.40;99608.00;;;;2071824;28;20217;-66
2023/03/11 04:04:44;;;;;;;3.20;1.20;;;;;19.30;99615.00;;;;2071493;28;20237;-66
2023/03/11 04:05:44;;;;;;;1.40;0.90;;;;;19.30;99614.00;;;;2071429;28;20218;-66
2023/03/11 04:06:45;;;;;;;3.67;1.27;;;;;19.40;99617.00;;;;2071512;28;20213;-66
2023/03/11 04:07:45;;;;;;;3.20;1.43;;;;;19.30;99598.00;;;;2070701;28;20283;-66
2023/03/11 04:08:45;;;;;;;2.47;1.27;;;;;19.30;99614.00;;;;2062532;28;20560;-66
2023/03/11 04:09:46;;;;;;;3.00;1.30;;;;;19.40;99624.00;;;;2062591;28;20643;-66
2023/03/11 04:10:55;;;;;;;2.83;1.17;;;;;19.30;99621.00;;;;2071426;28;20281;-66
2023/03/11 04:11:56;;;;;;;3.55;1.30;;;;;19.30;99613.00;;;;2071399;28;20220;-66
2023/03/11 04:12:56;;;;;;;4.60;1.20;;;;;19.30;99625.00;;;;2071352;28;20222;-66
2023/03/11 04:13:56;;;;;;;4.03;1.53;;;;;19.30;99510.00;;;;2071196;28;20218;-66
2023/03/11 04:14:57;;;;;;;3.20;1.47;;;;;19.30;99618.00;;;;2062699;28;20254;-66
2023/03/11 04:15:57;;;;;;;2.03;1.30;;;;;19.30;99622.00;;;;2063037;28;20262;-66
2023/03/11 04:16:58;;;;;;;2.60;1.00;;;;;19.30;99637.00;;;;2071766;28;20232;-66
2023/03/11 04:17:58;;;;;;;2.40;1.10;;;;;19.30;99630.00;;;;2062733;28;20762;-66
2023/03/11 04:18:58;;;;;;;4.20;1.37;;;;;19.30;99638.00;;;;2062445;28;20277;-66
2023/03/11 04:19:59;;;;;;;3.03;1.40;;;;;19.30;99625.00;;;;2071418;28;20238;-66
2023/03/11 04:20:59;;;;;;;2.90;1.20;;;;;19.30;99628.00;;;;2071642;28;20214;-66
2023/03/11 04:21:59;;;;;;;2.43;1.23;;;;;19.30;99626.00;;;;2071702;28;20210;-66
2023/03/11 04:23:00;;;;;;;3.33;1.40;;;;;19.30;99629.00;;;;2071642;28;20228;-66
2023/03/11 04:24:00;;;;;;;2.53;1.40;;;;;19.30;99631.00;;;;2071699;28;20218;-66
2023/03/11 04:25:01;;;;;;;3.17;1.30;;;;;19.30;99630.00;;;;2071360;28;20217;-66
2023/03/11 04:26:01;;;;;;;3.43;1.30;;;;;19.30;99629.00;;;;2071551;28;20214;-66
2023/03/11 04:27:01;;;;;;;2.23;1.10;;;;;19.30;99628.00;;;;2071408;28;20511;-66
2023/03/11 04:28:02;;;;;;;3.27;1.20;;;;;19.30;99623.00;;;;2071324;28;20233;-66
2023/03/11 04:29:02;;;;;;;4.30;1.37;;;;;19.30;99630.00;;;;2071056;28;20267;-66
2023/03/11 04:30:04;;;;;;;2.40;1.00;;;;;19.30;99631.00;;;;2071299;28;20211;-66
2023/03/11 04:31:04;;;;;;;3.80;1.52;;;;;19.30;99635.00;;;;2071603;28;20241;-67
2023/03/11 04:32:04;;;;;;;2.60;1.27;;;;;19.30;99630.00;;;;2071676;28;20705;-66
2023/03/11 04:33:05;;;;;;;4.03;1.20;;;;;19.30;99637.00;;;;2062861;28;20721;-66
2023/03/11 04:34:05;;;;;;;4.10;1.40;;;;;19.20;99640.00;;;;2062784;28;20254;-66
2023/03/11 04:35:06;;;;;;;2.90;1.17;;;;;19.20;99643.00;;;;2071203;28;20217;-66
2023/03/11 04:36:07;;;;;;;4.07;1.60;;;;;19.30;99631.00;;;;2062461;28;20211;-66
2023/03/11 04:37:07;;;;;;;2.72;1.20;;;;;19.30;99638.00;;;;2062722;28;20223;-66
2023/03/11 04:38:07;;;;;;;2.13;1.10;;;;;19.30;99646.00;;;;2071012;28;20213;-66
2023/03/11 04:39:08;;;;;;;3.23;1.50;;;;;19.20;99647.00;;;;2071063;28;20268;-66
2023/03/11 04:40:10;;;;;;;2.13;1.00;;;;;19.30;99645.00;;;;2071893;28;20213;-66
2023/03/11 04:41:10;;;;;;;1.95;1.10;;;;;19.30;99647.00;;;;2075069;28;20210;-66
2023/03/11 04:42:12;;;;;;;2.13;1.00;;;;;19.20;99656.00;;;;2073699;28;20570;-66
2023/03/11 04:43:13;;;;;;;2.13;1.13;;;;;19.20;99650.00;;;;2079650;28;20221;-66
2023/03/11 04:44:13;;;;;;;2.70;1.10;;;;;19.20;99652.00;;;;2079547;28;20243;-66
2023/03/11 04:45:13;;;;;;;4.00;1.40;;;;;19.20;99522.00;;;;2079603;28;20213;-66
2023/03/11 04:46:14;;;;;;;2.60;1.30;;;;;19.20;99660.00;;;;2079391;28;20213;-66
2023/03/11 04:47:14;;;;;;;2.40;1.30;;;;;19.20;99661.00;;;;2079465;28;20768;-66
2023/03/11 04:48:15;;;;;;;1.73;1.07;;;;;19.20;99663.00;;;;2079330;28;20213;-66
2023/03/11 04:49:15;;;;;;;2.50;1.30;;;;;19.20;99668.00;;;;2079600;28;20214;-65
2023/03/11 04:50:15;;;;;;;2.73;1.07;;;;;19.20;99659.00;;;;2078944;28;20244;-66
2023/03/11 04:51:16;;;;;;;1.97;1.20;;;;;19.20;99667.00;;;;2079138;28;20227;-66
2023/03/11 04:52:16;;;;;;;2.90;1.20;;;;;19.20;99665.00;;;;2079752;28;20719;-66
2023/03/11 04:53:16;;;;;;;2.43;1.00;;;;;19.20;99672.00;;;;2079674;28;20677;-66
2023/03/11 04:54:17;;;;;;;1.57;1.03;;;;;19.20;99663.00;;;;2079650;28;20779;-66
2023/03/11 04:55:17;;;;;;;2.37;1.10;;;;;19.20;99677.00;;;;2079493;28;20236;-66
2023/03/11 04:56:17;;;;;;;2.00;1.27;;;;;19.20;99674.00;;;;2079560;28;20585;-66
2023/03/11 04:57:18;;;;;;;2.93;1.50;;;;;19.20;99682.00;;;;2079739;28;20648;-66
2023/03/11 04:58:19;;;;;;;2.90;1.47;;;;;19.20;99682.00;;;;2070538;28;20671;-66
2023/03/11 04:59:19;;;;;;;3.70;1.50;;;;;19.20;99665.00;;;;2071416;28;20233;-66
2023/03/11 05:00:23;;;;;;;2.87;1.00;;;;;19.20;99677.00;;;;2079740;28;20455;-66
2023/03/11 05:01:24;;;;;;;1.73;1.05;;;;;19.10;99681.00;;;;2079685;28;20220;-66
2023/03/11 05:02:24;;;;;;;2.13;0.90;;;;;19.20;99683.00;;;;2079799;28;20218;-66
2023/03/11 05:03:24;;;;;;;2.70;1.17;;;;;19.10;99680.00;;;;2079586;28;20214;-66
2023/03/11 05:04:25;;;;;;;2.40;1.10;;;;;19.10;99688.00;;;;2079361;28;20237;-66
2023/03/11 05:05:25;;;;;;;2.80;1.00;;;;;19.10;99682.00;;;;2071599;28;20341;-66
2023/03/11 05:06:26;;;;;;;2.50;0.80;;;;;19.10;99691.00;;;;2071130;28;20214;-66